Terminal Aerodrome Forecast
Issued by NWS

Home | Current Version | Previous Version | Text Only | Print | Product List | Glossary On
Versions: 1 2 3 4 5 6 7 8 9 10 11 12 13 14 15 16 17
000
FTUS44 KLIX 241721
TAFMSY
TAF
KMSY 241721Z 2418/2518 15016KT P6SM VCTS BKN040CB BKN250
     FM250100 15011KT P6SM VCSH SCT030 BKN090
     FM250300 14009KT P6SM BKN090
     FM251400 13008KT P6SM VCSH BKN040=

USA.gov is the U.S. government's official web portal to all federal, state and local government web resources and services.